Terminal Aerodrome Forecast
Issued by NWS Cleveland, OH

Home | Current Version | Previous Version | Text Only | Print | Product List | Glossary On
Versions: 1 2 3 4 5 6 7 8 9 10 11 12 13 14 15 16 17 18 19 20 21
736
FTUS41 KCLE 110920 AAA
TAFYNG
TAF AMD
KYNG 110920Z 1109/1206 30012G18KT 6SM -SHSN OVC045
      TEMPO 1109/1112 5SM -SHSN BKN025
     FM111200 30010G16KT P6SM -SHSN BKN045
     FM111500 30012KT P6SM BKN035
     FM112300 23005KT P6SM SCT035=

USA.gov is the U.S. government's official web portal to all federal, state and local government web resources and services.